Time;durP1;ratioP1;P1;durP2;ratioP2;P2;SDS_P1;SDS_P2;PMS_P1;PMS_P2;Temp;Humidity;BMP_temperature;BMP_pressure;BME280_temperature;BME280_humidity;BME280_pressure;Samples;Min_cycle;Max_cycle;Signal;HPM_P1;HPM_P2
2022/05/18 00:00:27;;;;;;;4.10;1.50;;;19.30;99.90;;;;;;6067346;23;20014;-81
2022/05/18 00:03:04;;;;;;;6.30;1.42;;;19.30;99.90;;;;;;6093198;23;20426;-82
2022/05/18 00:05:31;;;;;;;2.40;1.30;;;19.20;99.90;;;;;;6067387;23;20010;-82
2022/05/18 00:07:57;;;;;;;1.40;1.00;;;19.20;99.90;;;;;;6067238;23;20007;-81
2022/05/18 00:10:23;;;;;;;4.15;1.30;;;19.20;99.90;;;;;;6092166;23;20081;-81
2022/05/18 00:12:49;;;;;;;2.92;1.50;;;19.30;99.90;;;;;;6092845;23;20030;-82
2022/05/18 00:15:17;;;;;;;1.98;1.10;;;19.20;99.90;;;;;;6067230;23;20007;-82
2022/05/18 00:17:43;;;;;;;2.25;1.35;;;19.20;99.90;;;;;;6068464;23;20002;-82
2022/05/18 00:20:10;;;;;;;2.75;1.27;;;19.20;99.90;;;;;;6092742;23;20379;-81
2022/05/18 00:22:54;;;;;;;3.70;1.42;;;19.20;99.90;;;;;;6067131;23;20007;-82
2022/05/18 00:25:23;;;;;;;5.20;1.20;;;19.20;99.90;;;;;;6092709;23;20423;-82
2022/05/18 00:27:49;;;;;;;5.72;1.40;;;19.20;99.90;;;;;;6067042;23;20030;-82
2022/05/18 00:30:16;;;;;;;8.82;1.63;;;19.20;99.90;;;;;;6067031;23;20014;-81
2022/05/18 00:32:43;;;;;;;3.95;1.50;;;19.20;99.90;;;;;;6067077;23;20435;-82
2022/05/18 00:35:09;;;;;;;6.32;1.35;;;19.20;99.90;;;;;;6067055;23;20016;-81
2022/05/18 00:37:35;;;;;;;5.65;1.65;;;19.20;99.90;;;;;;6066936;23;20003;-82
2022/05/18 00:40:01;;;;;;;5.10;1.77;;;19.20;99.90;;;;;;6066986;23;20009;-81
2022/05/18 00:42:28;;;;;;;3.97;1.40;;;19.20;99.90;;;;;;6067039;23;19999;-82
2022/05/18 00:44:54;;;;;;;4.57;1.17;;;19.10;99.90;;;;;;6092523;23;19999;-82
2022/05/18 00:47:20;;;;;;;4.60;1.38;;;19.10;99.90;;;;;;6066996;23;20312;-81
2022/05/18 00:49:52;;;;;;;3.60;1.30;;;19.10;99.90;;;;;;6092458;23;20069;-81
2022/05/18 00:52:20;;;;;;;2.40;1.23;;;19.10;99.90;;;;;;6066965;23;20339;-81
2022/05/18 00:54:49;;;;;;;3.92;1.33;;;19.10;99.90;;;;;;6092404;23;20312;-81
2022/05/18 00:57:21;;;;;;;4.68;1.58;;;19.10;99.90;;;;;;6066561;23;20347;-82
2022/05/18 01:00:01;;;;;;;4.38;1.27;;;19.10;99.90;;;;;;6092766;23;20010;-81
2022/05/18 01:02:30;;;;;;;4.18;1.50;;;19.10;99.90;;;;;;6092808;23;20022;-81
2022/05/18 01:05:00;;;;;;;3.22;1.55;;;19.00;99.90;;;;;;6092405;23;19998;-81
2022/05/18 01:07:36;;;;;;;4.97;1.60;;;19.00;99.90;;;;;;6066667;23;20010;-81
2022/05/18 01:10:04;;;;;;;2.97;1.70;;;19.00;99.90;;;;;;6066780;23;20441;-81
2022/05/18 01:12:29;;;;;;;3.72;1.40;;;19.00;99.90;;;;;;6066542;23;20002;-81
2022/05/18 01:15:11;;;;;;;4.00;1.30;;;19.00;99.90;;;;;;6066547;23;20077;-81
2022/05/18 01:17:40;;;;;;;4.28;2.00;;;19.00;99.90;;;;;;6092357;23;20007;-81
2022/05/18 01:20:14;;;;;;;2.53;1.10;;;19.00;99.90;;;;;;6066623;23;20312;-81
2022/05/18 01:22:54;;;;;;;3.50;1.23;;;19.00;99.90;;;;;;6068025;23;20003;-81
2022/05/18 01:25:35;;;;;;;4.32;1.60;;;19.00;99.90;;;;;;6068143;23;20006;-81
2022/05/18 01:28:04;;;;;;;3.30;1.63;;;18.90;99.90;;;;;;6068149;23;20007;-82
2022/05/18 01:30:31;;;;;;;10.45;1.60;;;18.90;99.90;;;;;;6067948;23;20002;-81
2022/05/18 01:32:59;;;;;;;3.42;1.70;;;19.00;99.90;;;;;;6093594;23;20017;-81
2022/05/18 01:35:28;;;;;;;3.85;1.55;;;18.90;99.90;;;;;;6068041;23;20007;-81
2022/05/18 01:37:59;;;;;;;5.28;1.58;;;18.90;99.90;;;;;;6067953;23;20453;-81
2022/05/18 01:40:45;;;;;;;4.10;2.00;;;18.90;99.90;;;;;;6068096;23;20473;-81
2022/05/18 01:43:20;;;;;;;3.42;1.55;;;18.90;99.90;;;;;;6068033;23;20017;-82
2022/05/18 01:45:55;;;;;;;3.30;1.20;;;18.80;99.90;;;;;;6093522;23;19999;-82
2022/05/18 01:48:24;;;;;;;5.28;1.65;;;18.90;99.90;;;;;;6093590;23;20319;-81
2022/05/18 01:50:50;;;;;;;2.97;1.52;;;18.90;99.90;;;;;;6093437;23;20426;-81
2022/05/18 01:53:17;;;;;;;6.28;1.70;;;18.90;99.90;;;;;;6093486;23;19995;-82
2022/05/18 01:55:43;;;;;;;5.80;1.98;;;18.80;99.90;;;;;;6067843;23;20002;-81
2022/05/18 01:58:11;;;;;;;2.78;1.45;;;18.80;99.90;;;;;;6093264;23;20021;-81
2022/05/18 02:00:37;;;;;;;5.35;1.48;;;18.80;99.90;;;;;;6067838;23;20003;-81
2022/05/18 02:03:03;;;;;;;4.70;1.50;;;18.80;99.90;;;;;;6067903;23;20010;-81
2022/05/18 02:05:29;;;;;;;3.92;1.50;;;18.80;99.90;;;;;;6067839;23;20351;-81
2022/05/18 02:07:57;;;;;;;5.28;1.52;;;18.80;99.90;;;;;;6067876;23;20477;-82
2022/05/18 02:10:23;;;;;;;3.13;1.48;;;18.80;99.90;;;;;;6093317;23;20013;-81
2022/05/18 02:12:49;;;;;;;5.43;1.88;;;18.70;99.90;;;;;;6067811;23;20003;-81
2022/05/18 02:15:15;;;;;;;2.45;1.40;;;18.80;99.90;;;;;;6093448;23;20002;-81
2022/05/18 02:17:41;;;;;;;2.55;1.60;;;18.70;99.90;;;;;;6093476;23;20008;-82
2022/05/18 02:20:08;;;;;;;3.13;1.60;;;18.80;99.90;;;;;;6093437;23;20003;-81
2022/05/18 02:22:34;;;;;;;4.40;1.70;;;18.70;99.90;;;;;;6067739;23;20313;-82
2022/05/18 02:24:59;;;;;;;5.55;1.70;;;18.70;99.90;;;;;;6067846;23;20010;-81
2022/05/18 02:27:25;;;;;;;3.13;1.45;;;18.70;99.90;;;;;;6067905;23;20025;-81
2022/05/18 02:29:51;;;;;;;3.60;1.42;;;18.70;99.90;;;;;;6067955;23;20385;-81
2022/05/18 02:32:17;;;;;;;5.05;1.42;;;18.70;99.90;;;;;;6067886;23;20097;-81
2022/05/18 02:34:43;;;;;;;4.60;1.70;;;18.70;99.90;;;;;;6067765;23;20003;-81
2022/05/18 02:37:08;;;;;;;4.07;1.65;;;18.70;99.90;;;;;;6093405;23;20077;-81
2022/05/18 02:39:34;;;;;;;5.05;1.85;;;18.70;99.90;;;;;;6067836;23;20010;-81
2022/05/18 02:42:00;;;;;;;4.13;1.70;;;18.70;99.90;;;;;;6093474;23;20316;-81
2022/05/18 02:44:25;;;;;;;4.10;1.60;;;18.70;99.90;;;;;;6067833;23;20320;-81
2022/05/18 02:46:56;;;;;;;5.57;1.85;;;18.70;99.90;;;;;;6093700;23;20013;-81
2022/05/18 02:49:23;;;;;;;4.50;1.60;;;18.60;99.90;;;;;;6067814;23;20377;-81
2022/05/18 02:51:51;;;;;;;6.53;1.65;;;18.60;99.90;;;;;;6067542;23;20037;-81
2022/05/18 02:57:03;;;;;;;5.30;1.42;;;18.60;99.90;;;;;;6093293;23;20022;-81
2022/05/18 02:59:29;;;;;;;3.63;1.52;;;18.60;99.90;;;;;;6067511;23;20003;-81
2022/05/18 03:01:55;;;;;;;5.68;1.58;;;18.60;99.90;;;;;;6067620;23;20315;-81
2022/05/18 03:04:21;;;;;;;4.78;1.63;;;18.60;99.90;;;;;;6067645;23;20006;-81
2022/05/18 03:06:47;;;;;;;1.90;1.52;;;18.60;99.90;;;;;;6067631;23;20094;-81
2022/05/18 03:09:13;;;;;;;2.33;1.50;;;18.50;99.90;;;;;;6093224;23;20003;-81
2022/05/18 03:11:38;;;;;;;3.53;2.00;;;18.50;99.90;;;;;;6093072;23;20011;-81
2022/05/18 03:14:04;;;;;;;5.90;1.85;;;18.50;99.90;;;;;;6093533;23;19998;-81
2022/05/18 03:16:31;;;;;;;5.63;1.67;;;18.50;99.90;;;;;;6067642;23;20367;-81
2022/05/18 03:18:57;;;;;;;3.05;1.40;;;18.50;99.90;;;;;;6093153;23;20335;-81
2022/05/18 03:24:07;;;;;;;4.40;2.03;;;18.50;99.90;;;;;;6093233;23;20017;-81
2022/05/18 03:26:33;;;;;;;3.83;1.70;;;18.50;99.90;;;;;;6067497;23;20087;-81
2022/05/18 03:28:59;;;;;;;4.97;1.70;;;18.50;99.90;;;;;;6093386;23;20010;-81
2022/05/18 03:31:27;;;;;;;3.83;1.77;;;18.50;99.90;;;;;;6067499;23;20014;-81
2022/05/18 03:33:55;;;;;;;3.88;1.80;;;18.40;99.90;;;;;;6093060;23;20044;-81
2022/05/18 03:36:21;;;;;;;4.13;2.00;;;18.40;99.90;;;;;;6067456;23;20088;-81
2022/05/18 03:38:48;;;;;;;3.67;1.83;;;18.40;99.90;;;;;;6067521;23;20011;-81
2022/05/18 03:41:16;;;;;;;4.00;1.75;;;18.40;99.90;;;;;;6093728;23;20006;-81
2022/05/18 03:43:42;;;;;;;5.20;1.73;;;18.40;99.90;;;;;;6092782;23;20112;-81
2022/05/18 03:46:08;;;;;;;5.35;1.50;;;18.40;99.90;;;;;;6066914;23;20007;-81
2022/05/18 03:48:34;;;;;;;5.47;1.55;;;18.40;99.90;;;;;;6092956;23;20013;-81
2022/05/18 03:51:02;;;;;;;5.53;1.83;;;18.40;99.90;;;;;;6093152;23;20010;-81
2022/05/18 03:53:29;;;;;;;3.50;1.50;;;18.30;99.90;;;;;;6092959;23;20010;-81
2022/05/18 03:55:55;;;;;;;3.50;1.83;;;18.30;99.90;;;;;;6066944;23;20501;-81
2022/05/18 03:58:21;;;;;;;2.92;1.70;;;18.40;99.90;;;;;;6068394;23;20010;-81
2022/05/18 04:00:48;;;;;;;3.58;1.58;;;18.30;99.90;;;;;;6067416;23;20017;-81
2022/05/18 04:03:16;;;;;;;3.40;1.70;;;18.30;99.90;;;;;;6067266;23;20038;-81
2022/05/18 04:05:42;;;;;;;2.60;1.40;;;18.30;99.90;;;;;;6093142;23;20002;-81
2022/05/18 04:08:09;;;;;;;2.20;1.60;;;18.30;99.90;;;;;;6067294;23;20021;-81
2022/05/18 04:10:35;;;;;;;3.95;1.67;;;18.30;99.90;;;;;;6067237;23;20494;-81
2022/05/18 04:13:01;;;;;;;2.50;1.27;;;18.30;99.90;;;;;;6067274;23;20354;-81
2022/05/18 04:15:27;;;;;;;3.92;1.50;;;18.30;99.90;;;;;;6092761;23;20022;-81
2022/05/18 04:17:54;;;;;;;8.70;1.58;;;18.30;99.90;;;;;;6093129;23;20403;-81
2022/05/18 04:20:22;;;;;;;3.90;1.55;;;18.20;99.90;;;;;;6092729;23;20009;-81
2022/05/18 04:22:49;;;;;;;2.65;1.63;;;18.30;99.90;;;;;;6067155;23;20153;-81
2022/05/18 04:25:20;;;;;;;5.28;1.67;;;18.20;99.90;;;;;;6067260;23;20002;-81
2022/05/18 04:27:47;;;;;;;3.78;1.70;;;18.20;99.90;;;;;;6067219;23;20402;-81
2022/05/18 04:30:17;;;;;;;3.15;1.98;;;18.30;99.90;;;;;;6092567;23;20006;-81
2022/05/18 04:32:44;;;;;;;7.25;1.95;;;18.30;99.90;;;;;;6067130;23;20002;-81
2022/05/18 04:35:12;;;;;;;4.30;1.90;;;18.20;99.90;;;;;;6067303;23;20335;-81
2022/05/18 04:37:38;;;;;;;2.55;1.58;;;18.20;99.90;;;;;;6067037;23;19999;-81
2022/05/18 04:40:06;;;;;;;2.63;1.67;;;18.20;99.90;;;;;;6092563;23;20429;-81
2022/05/18 04:42:31;;;;;;;2.63;1.75;;;18.20;99.90;;;;;;6066929;23;20009;-81
2022/05/18 04:44:57;;;;;;;4.07;1.92;;;18.20;99.90;;;;;;6067036;23;20007;-81
2022/05/18 04:47:24;;;;;;;5.05;1.80;;;18.20;99.90;;;;;;6067015;23;20489;-81
2022/05/18 04:49:51;;;;;;;5.25;1.90;;;18.20;99.90;;;;;;6066809;23;19999;-81
2022/05/18 04:52:20;;;;;;;4.20;2.05;;;18.20;99.90;;;;;;6066743;23;20010;-81
2022/05/18 04:54:47;;;;;;;5.65;2.15;;;18.20;99.90;;;;;;6066826;23;20009;-81
2022/05/18 04:57:13;;;;;;;4.18;2.15;;;18.20;99.90;;;;;;6067639;23;20018;-81
2022/05/18 04:59:39;;;;;;;3.17;1.80;;;18.20;99.90;;;;;;6093791;23;20014;-81
2022/05/18 05:02:05;;;;;;;6.40;2.00;;;18.20;99.90;;;;;;6093536;23;20007;-81
2022/05/18 05:04:31;;;;;;;3.20;1.60;;;18.20;99.90;;;;;;6068139;23;20002;-81
2022/05/18 05:06:57;;;;;;;6.50;1.70;;;18.20;99.90;;;;;;6093746;23;20383;-81
2022/05/18 05:09:24;;;;;;;3.38;1.80;;;18.20;99.90;;;;;;6068429;23;20006;-81
2022/05/18 05:11:51;;;;;;;3.60;1.90;;;18.20;99.90;;;;;;6093989;23;20462;-81
2022/05/18 05:14:18;;;;;;;3.97;2.00;;;18.20;99.90;;;;;;6093766;23;19999;-81
2022/05/18 05:16:43;;;;;;;6.20;2.08;;;18.20;99.90;;;;;;6094120;23;20002;-81
2022/05/18 05:19:09;;;;;;;4.63;2.00;;;18.20;99.90;;;;;;6093809;23;20017;-81
2022/05/18 05:21:36;;;;;;;3.47;1.77;;;18.20;99.90;;;;;;6093777;23;20057;-81
2022/05/18 05:24:02;;;;;;;3.30;2.08;;;18.20;99.90;;;;;;6068247;23;20053;-81
2022/05/18 05:26:28;;;;;;;5.25;2.05;;;18.20;99.90;;;;;;6068214;23;20014;-81
2022/05/18 05:28:54;;;;;;;6.63;2.20;;;18.20;99.90;;;;;;6093777;23;20010;-81
2022/05/18 05:31:19;;;;;;;7.03;2.10;;;18.20;99.90;;;;;;6068174;23;20068;-81
2022/05/18 05:33:45;;;;;;;3.38;2.03;;;18.20;99.90;;;;;;6068598;23;20006;-81
2022/05/18 05:36:11;;;;;;;3.65;2.05;;;18.20;99.90;;;;;;6094063;23;20002;-81
2022/05/18 05:38:37;;;;;;;2.78;1.85;;;18.20;99.90;;;;;;6094058;23;20002;-81
2022/05/18 05:41:03;;;;;;;5.40;2.05;;;18.20;99.90;;;;;;6093704;23;20006;-81
2022/05/18 05:43:32;;;;;;;6.63;2.10;;;18.20;99.90;;;;;;6068136;23;20021;-81
2022/05/18 05:46:06;;;;;;;6.40;2.13;;;18.20;99.90;;;;;;6068155;23;20450;-81
2022/05/18 05:48:33;;;;;;;4.15;1.95;;;18.20;99.90;;;;;;6068266;23;20360;-81
2022/05/18 05:51:00;;;;;;;5.60;2.22;;;18.20;99.90;;;;;;6093613;23;20021;-81
2022/05/18 05:53:27;;;;;;;2.50;1.88;;;18.20;99.90;;;;;;6093690;23;20520;-81
2022/05/18 05:55:56;;;;;;;4.97;1.92;;;18.30;99.90;;;;;;6093411;23;19998;-81
2022/05/18 05:58:23;;;;;;;3.72;1.77;;;18.20;99.90;;;;;;6068065;23;20007;-81
2022/05/18 06:00:49;;;;;;;2.72;1.90;;;18.30;99.90;;;;;;6068127;23;20068;-81
2022/05/18 06:03:16;;;;;;;4.32;1.70;;;18.20;99.90;;;;;;6094101;23;20006;-82
2022/05/18 06:05:42;;;;;;;2.55;1.80;;;18.20;99.90;;;;;;6093714;23;20077;-81
2022/05/18 06:08:08;;;;;;;3.65;2.10;;;18.30;99.90;;;;;;6067624;23;20034;-82
2022/05/18 06:10:34;;;;;;;2.83;1.55;;;18.30;99.90;;;;;;6067943;23;20093;-81
2022/05/18 06:13:08;;;;;;;4.45;1.83;;;18.30;99.90;;;;;;6093975;23;20311;-81
2022/05/18 06:15:34;;;;;;;4.03;1.85;;;18.30;99.90;;;;;;6068338;23;20057;-82
2022/05/18 06:18:00;;;;;;;6.15;1.98;;;18.30;99.90;;;;;;6068123;23;20429;-81
2022/05/18 06:20:25;;;;;;;2.28;1.60;;;18.30;99.90;;;;;;6068156;23;20056;-86
2022/05/18 06:22:51;;;;;;;4.30;1.85;;;18.30;99.90;;;;;;6094087;23;20030;-81
2022/05/18 06:25:18;;;;;;;2.78;1.75;;;18.40;99.90;;;;;;6093745;23;20007;-82
2022/05/18 06:27:44;;;;;;;3.20;2.00;;;18.30;99.90;;;;;;6093917;23;20002;-81
2022/05/18 06:30:12;;;;;;;3.83;2.00;;;18.30;99.90;;;;;;6067950;23;20013;-82
2022/05/18 06:32:38;;;;;;;2.92;2.00;;;18.30;99.90;;;;;;6068098;23;20007;-82
2022/05/18 06:35:04;;;;;;;5.82;1.75;;;18.40;99.90;;;;;;6093544;23;20445;-82
2022/05/18 06:37:30;;;;;;;3.92;1.80;;;18.40;99.90;;;;;;6068036;23;20073;-82
2022/05/18 06:39:56;;;;;;;8.63;2.20;;;18.40;99.90;;;;;;6068113;23;20057;-82
2022/05/18 06:42:21;;;;;;;8.02;2.28;;;18.50;99.90;;;;;;6068020;23;20011;-82
2022/05/18 06:44:47;;;;;;;6.28;2.55;;;18.60;99.90;;;;;;6068075;23;20014;-82
2022/05/18 06:47:13;;;;;;;16.13;3.88;;;18.70;99.90;;;;;;6093438;23;19999;-82
2022/05/18 06:49:40;;;;;;;6.95;2.95;;;18.80;99.90;;;;;;6068037;23;20007;-82
2022/05/18 06:52:07;;;;;;;9.02;2.35;;;18.90;99.90;;;;;;6067625;23;20342;-82
2022/05/18 06:54:32;;;;;;;6.07;2.38;;;19.10;99.90;;;;;;6067850;23;20006;-82
2022/05/18 06:56:58;;;;;;;4.78;2.15;;;19.20;99.90;;;;;;6067589;23;20010;-82
2022/05/18 06:59:24;;;;;;;5.10;2.50;;;19.30;99.90;;;;;;6067854;23;20099;-81
2022/05/18 07:01:50;;;;;;;5.68;2.47;;;19.40;99.90;;;;;;6093445;23;20006;-83
2022/05/18 07:04:16;;;;;;;3.55;2.15;;;19.50;99.90;;;;;;6093406;23;20081;-82
2022/05/18 07:06:44;;;;;;;5.80;2.72;;;19.60;99.90;;;;;;6067952;23;20388;-82
2022/05/18 07:09:13;;;;;;;4.90;2.30;;;19.70;99.90;;;;;;6067765;23;20017;-82
2022/05/18 07:11:39;;;;;;;8.88;2.58;;;19.70;99.90;;;;;;6067615;23;20184;-82
2022/05/18 07:14:05;;;;;;;5.15;2.50;;;19.80;99.90;;;;;;6067628;23;20038;-82
2022/05/18 07:16:33;;;;;;;4.28;2.20;;;20.00;99.90;;;;;;6067749;23;20003;-82
2022/05/18 07:18:59;;;;;;;5.65;2.28;;;20.10;99.90;;;;;;6067596;23;20457;-82
2022/05/18 07:21:25;;;;;;;6.72;2.38;;;20.10;99.90;;;;;;6067778;23;20003;-82
2022/05/18 07:23:55;;;;;;;5.05;2.10;;;20.20;99.90;;;;;;6093246;23;20007;-82
2022/05/18 07:26:22;;;;;;;3.85;2.28;;;20.30;99.90;;;;;;6067751;23;20045;-82
2022/05/18 07:28:48;;;;;;;5.50;2.22;;;20.50;99.90;;;;;;6067746;23;20057;-82
2022/05/18 07:31:15;;;;;;;6.55;2.72;;;20.50;99.90;;;;;;6093147;23;20427;-82
2022/05/18 07:33:41;;;;;;;8.23;2.60;;;20.60;99.90;;;;;;6067661;23;20010;-82
2022/05/18 07:36:07;;;;;;;10.65;2.88;;;20.60;99.90;;;;;;6093274;23;20006;-82
2022/05/18 07:38:34;;;;;;;6.72;2.45;;;20.60;99.90;;;;;;6067727;23;20417;-82
2022/05/18 07:41:01;;;;;;;5.97;2.47;;;20.80;99.90;;;;;;6093150;23;20070;-82
2022/05/18 07:43:27;;;;;;;12.32;2.38;;;21.00;99.90;;;;;;6093083;23;20003;-83
2022/05/18 07:45:55;;;;;;;6.60;2.55;;;21.10;99.90;;;;;;6067598;23;20056;-82
2022/05/18 07:48:22;;;;;;;10.13;2.58;;;21.20;99.90;;;;;;6067509;23;20003;-82
2022/05/18 07:50:49;;;;;;;7.25;2.28;;;21.20;99.90;;;;;;6067444;23;20450;-82
2022/05/18 07:53:15;;;;;;;4.80;2.17;;;21.30;99.90;;;;;;6067574;23;20057;-82
2022/05/18 07:55:41;;;;;;;5.70;2.50;;;21.40;99.90;;;;;;6067530;23;20010;-82
2022/05/18 07:58:09;;;;;;;4.47;2.30;;;21.50;99.90;;;;;;6092865;23;20427;-83
2022/05/18 08:00:35;;;;;;;8.15;2.55;;;21.60;99.90;;;;;;6067652;23;20427;-82
2022/05/18 08:03:02;;;;;;;4.45;2.50;;;21.70;99.90;;;;;;6067504;23;20007;-82
2022/05/18 08:05:29;;;;;;;5.68;2.40;;;21.80;99.90;;;;;;6093058;23;20002;-82
2022/05/18 08:07:54;;;;;;;5.03;2.53;;;21.90;99.90;;;;;;6067601;23;20442;-82
2022/05/18 08:15:51;;;;;;;4.15;2.10;;;22.10;99.90;;;;;;6093274;23;19911;-83
2022/05/18 08:18:18;;;;;;;5.78;2.55;;;22.20;99.90;;;;;;6067279;23;20022;-83
2022/05/18 08:20:45;;;;;;;2.80;2.20;;;22.20;99.90;;;;;;6067255;23;20011;-82
2022/05/18 08:23:11;;;;;;;3.53;2.08;;;22.30;99.90;;;;;;6067269;23;20438;-83
2022/05/18 08:25:37;;;;;;;4.40;2.05;;;22.30;99.90;;;;;;6092633;23;20010;-83
2022/05/18 08:28:04;;;;;;;4.10;2.20;;;22.40;99.30;;;;;;6067110;23;20013;-83
2022/05/18 08:30:31;;;;;;;7.00;2.00;;;22.50;99.70;;;;;;6067164;23;20042;-82
2022/05/18 08:32:59;;;;;;;5.43;2.35;;;22.70;99.80;;;;;;6068208;23;20141;-82
2022/05/18 08:35:24;;;;;;;5.28;2.08;;;22.80;99.20;;;;;;6068217;23;20002;-83
2022/05/18 08:37:51;;;;;;;6.20;1.95;;;22.90;99.00;;;;;;6068323;23;20058;-83
2022/05/18 08:40:36;;;;;;;5.05;2.03;;;22.90;99.00;;;;;;6068206;23;20002;-82
2022/05/18 08:43:05;;;;;;;4.25;1.98;;;23.10;98.70;;;;;;6094004;23;20074;-83
2022/05/18 08:45:35;;;;;;;5.13;1.92;;;23.30;97.90;;;;;;6068196;23;20076;-83
2022/05/18 08:48:14;;;;;;;7.93;2.05;;;23.30;97.70;;;;;;6068096;23;20002;-83
2022/05/18 08:50:39;;;;;;;2.78;1.63;;;23.20;97.80;;;;;;6093927;23;20010;-82
2022/05/18 08:53:29;;;;;;;4.97;2.47;;;23.30;97.80;;;;;;6093888;23;20048;-83
2022/05/18 08:56:19;;;;;;;4.07;1.80;;;23.40;96.80;;;;;;6093638;23;20007;-82
2022/05/18 08:58:48;;;;;;;2.97;1.90;;;23.40;96.50;;;;;;6068139;23;20021;-83
2022/05/18 09:01:25;;;;;;;4.95;2.20;;;23.50;96.80;;;;;;6068145;23;20007;-83
2022/05/18 09:03:57;;;;;;;6.30;2.05;;;23.50;95.50;;;;;;6068253;23;20014;-83
2022/05/18 09:06:29;;;;;;;4.63;2.00;;;23.50;96.00;;;;;;6068070;23;20439;-84
2022/05/18 09:11:50;;;;;;;7.75;1.80;;;23.80;96.60;;;;;;6093976;23;20566;-84
2022/05/18 09:14:22;;;;;;;4.53;1.83;;;24.00;96.80;;;;;;6068257;23;20038;-84
2022/05/18 09:17:24;;;;;;;4.40;1.88;;;24.10;95.90;;;;;;6068368;23;20009;-84
2022/05/18 09:19:55;;;;;;;5.70;2.13;;;24.10;96.00;;;;;;6068205;23;20015;-85
2022/05/18 09:22:47;;;;;;;3.95;2.03;;;24.20;95.20;;;;;;6068235;23;20006;-85
2022/05/18 09:25:25;;;;;;;4.45;1.75;;;24.30;95.20;;;;;;6093135;23;20089;-84
2022/05/18 09:28:14;;;;;;;6.45;1.67;;;24.40;94.50;;;;;;6068268;23;20006;-83
2022/05/18 09:30:55;;;;;;;6.50;1.92;;;24.50;94.40;;;;;;6068265;23;20052;-85
2022/05/18 09:33:42;;;;;;;3.63;1.13;;;24.60;94.30;;;;;;6068351;23;20010;-85
2022/05/18 09:36:26;;;;;;;3.70;1.13;;;24.70;91.70;;;;;;6068180;23;20010;-84
2022/05/18 09:39:04;;;;;;;2.22;1.05;;;24.80;91.50;;;;;;6068213;23;20022;-84
2022/05/18 09:41:43;;;;;;;3.63;1.23;;;25.00;91.80;;;;;;6068083;23;20029;-85
2022/05/18 09:44:36;;;;;;;6.90;1.50;;;24.90;90.60;;;;;;6068333;23;20454;-84
2022/05/18 09:47:02;;;;;;;2.80;1.30;;;25.10;89.50;;;;;;6093497;23;20009;-84
2022/05/18 09:49:41;;;;;;;3.20;1.50;;;25.10;91.10;;;;;;6067964;23;20342;-85
2022/05/18 09:52:08;;;;;;;5.65;1.55;;;25.10;91.80;;;;;;6068213;23;20011;-85
2022/05/18 09:54:36;;;;;;;3.70;1.58;;;25.10;92.10;;;;;;6093462;23;20048;-85
2022/05/18 09:57:20;;;;;;;3.28;1.10;;;25.30;92.20;;;;;;6067793;23;20350;-84
2022/05/18 10:00:17;;;;;;;6.30;2.03;;;25.40;89.90;;;;;;6067966;23;20002;-84
2022/05/18 10:08:23;;;;;;;5.50;1.33;;;25.60;91.60;;;;;;6049017;23;20351;-84
2022/05/18 10:10:59;;;;;;;5.28;1.90;;;25.80;91.10;;;;;;6067682;23;20010;-84
2022/05/18 10:13:32;;;;;;;3.88;1.40;;;25.80;91.80;;;;;;6093733;23;20021;-84
2022/05/18 10:16:14;;;;;;;4.32;1.42;;;25.90;90.30;;;;;;6093317;23;20002;-84
2022/05/18 10:18:54;;;;;;;4.28;1.48;;;25.80;89.80;;;;;;6067984;23;20013;-84
2022/05/18 10:21:34;;;;;;;4.07;1.30;;;25.90;89.20;;;;;;6067974;23;20006;-84
2022/05/18 10:24:04;;;;;;;3.75;1.52;;;25.90;90.70;;;;;;6093903;23;20033;-84
2022/05/18 10:26:39;;;;;;;7.30;1.35;;;26.10;91.20;;;;;;6093659;23;20010;-84
2022/05/18 10:29:23;;;;;;;6.30;1.40;;;26.20;91.10;;;;;;6093975;23;20007;-84
2022/05/18 10:32:11;;;;;;;2.55;1.20;;;26.20;90.60;;;;;;6093380;23;20010;-84
2022/05/18 10:34:42;;;;;;;1.63;1.08;;;26.30;90.10;;;;;;6067874;23;20014;-84
2022/05/18 10:37:10;;;;;;;1.52;1.08;;;26.30;89.60;;;;;;6093388;23;19998;-84
2022/05/18 10:39:44;;;;;;;2.75;1.20;;;26.50;89.20;;;;;;6067677;23;20003;-84
2022/05/18 10:42:42;;;;;;;5.05;1.50;;;26.60;89.40;;;;;;6067899;23;20029;-84
2022/05/18 10:45:22;;;;;;;5.97;1.23;;;26.60;89.30;;;;;;6093841;23;20132;-84
2022/05/18 10:47:50;;;;;;;2.95;1.05;;;26.60;87.00;;;;;;6067928;23;20064;-84
2022/05/18 10:50:23;;;;;;;5.18;1.58;;;26.70;87.60;;;;;;6093490;23;20304;-84
2022/05/18 10:53:00;;;;;;;6.93;1.60;;;26.70;88.50;;;;;;6067866;23;20419;-84
2022/05/18 10:55:29;;;;;;;2.20;1.17;;;26.60;89.20;;;;;;6068762;23;20014;-84
2022/05/18 10:58:19;;;;;;;6.55;1.52;;;26.60;89.00;;;;;;6093375;23;20014;-84
2022/05/18 11:00:50;;;;;;;3.33;1.60;;;26.70;89.00;;;;;;6043918;23;20003;-84
2022/05/18 11:03:35;;;;;;;3.65;1.70;;;26.60;90.30;;;;;;6067768;23;20411;-84
2022/05/18 11:06:13;;;;;;;4.32;1.45;;;26.70;90.60;;;;;;6067944;23;20007;-84
2022/05/18 11:08:39;;;;;;;4.53;1.50;;;26.80;90.70;;;;;;6067944;23;20320;-84
2022/05/18 11:11:08;;;;;;;4.70;1.60;;;26.80;89.10;;;;;;6093262;23;20013;-83
2022/05/18 11:13:39;;;;;;;10.73;1.75;;;26.80;90.10;;;;;;6067827;23;20006;-85
2022/05/18 11:16:14;;;;;;;2.03;1.20;;;26.70;90.00;;;;;;6067849;23;20037;-83
2022/05/18 11:19:02;;;;;;;6.50;1.70;;;26.80;90.30;;;;;;6067745;23;20502;-85
2022/05/18 11:22:01;;;;;;;5.30;1.70;;;27.00;90.70;;;;;;6067837;23;20010;-82
2022/05/18 11:25:01;;;;;;;7.03;1.75;;;27.00;90.40;;;;;;6066627;23;20033;-82
2022/05/18 11:27:40;;;;;;;6.50;1.77;;;27.00;90.70;;;;;;6068079;23;20003;-84
2022/05/18 11:30:45;;;;;;;4.70;1.73;;;27.20;90.70;;;;;;6067677;23;20007;-83
2022/05/18 11:33:26;;;;;;;4.68;1.67;;;27.20;90.30;;;;;;6124563;23;20093;-85
2022/05/18 11:35:58;;;;;;;9.48;1.90;;;27.20;90.40;;;;;;6070338;23;20053;-84
2022/05/18 11:38:26;;;;;;;7.15;1.83;;;26.90;90.50;;;;;;6067512;23;20007;-83
2022/05/18 11:41:19;;;;;;;6.80;1.60;;;26.30;91.00;;;;;;6067654;23;20056;-83
2022/05/18 11:44:10;;;;;;;5.18;1.70;;;25.60;91.70;;;;;;6067577;23;20006;-83
2022/05/18 11:46:38;;;;;;;3.13;1.42;;;25.10;92.30;;;;;;6068254;23;20476;-83
2022/05/18 11:49:16;;;;;;;8.68;1.70;;;24.70;92.90;;;;;;6067737;23;20003;-82
2022/05/18 11:51:50;;;;;;;2.85;1.50;;;24.50;93.20;;;;;;6093057;23;20058;-83
2022/05/18 11:55:09;;;;;;;3.05;1.70;;;24.40;93.40;;;;;;6067595;23;20010;-83
2022/05/18 11:57:53;;;;;;;3.03;1.58;;;24.20;93.70;;;;;;6099326;23;20024;-83
2022/05/18 12:03:34;;;;;;;9.20;1.83;;;23.90;94.30;;;;;;6103503;23;19902;-82
2022/05/18 12:06:20;;;;;;;4.15;1.40;;;23.80;94.40;;;;;;6066866;23;20064;-83
2022/05/18 12:09:19;;;;;;;5.32;1.67;;;23.70;94.50;;;;;;6067679;23;20351;-83
2022/05/18 12:12:02;;;;;;;4.13;1.58;;;23.60;94.60;;;;;;6067326;23;20002;-83
2022/05/18 12:14:52;;;;;;;7.72;1.83;;;23.60;94.60;;;;;;6093389;23;19999;-83
2022/05/18 12:17:26;;;;;;;3.58;1.58;;;23.60;94.80;;;;;;6067853;23;20029;-83
2022/05/18 12:20:10;;;;;;;3.70;1.67;;;23.50;94.70;;;;;;6067284;23;20022;-83
2022/05/18 12:22:39;;;;;;;2.88;1.60;;;23.50;94.70;;;;;;6067387;23;20014;-83
2022/05/18 12:25:07;;;;;;;4.28;1.30;;;23.60;94.60;;;;;;6092870;23;20003;-83
2022/05/18 12:27:33;;;;;;;2.92;1.65;;;23.60;95.00;;;;;;6067299;23;20029;-83
2022/05/18 12:30:05;;;;;;;3.55;1.90;;;23.50;94.80;;;;;;6067148;23;20038;-83
2022/05/18 12:32:31;;;;;;;2.53;1.60;;;23.50;94.70;;;;;;6092717;23;19999;-83
2022/05/18 12:35:14;;;;;;;3.45;1.35;;;23.60;94.70;;;;;;6067194;23;20343;-83
2022/05/18 12:38:12;;;;;;;2.33;1.50;;;23.60;94.60;;;;;;6092757;23;20006;-82
2022/05/18 12:40:52;;;;;;;2.97;1.52;;;23.60;94.50;;;;;;6067229;23;20007;-83
2022/05/18 12:43:44;;;;;;;3.88;1.33;;;23.60;94.60;;;;;;6067507;23;20076;-83
2022/05/18 12:46:16;;;;;;;5.00;1.40;;;23.60;94.50;;;;;;6067082;23;20014;-84
2022/05/18 12:48:50;;;;;;;3.05;1.50;;;23.60;94.50;;;;;;6067095;23;20076;-84
2022/05/18 12:51:37;;;;;;;3.38;1.75;;;23.70;94.40;;;;;;6067048;23;20074;-83
2022/05/18 12:54:09;;;;;;;3.45;1.30;;;23.80;94.40;;;;;;6067086;23;20064;-83
2022/05/18 12:56:37;;;;;;;3.22;1.23;;;23.80;94.30;;;;;;6066786;23;20036;-82
2022/05/18 12:59:21;;;;;;;4.40;1.25;;;24.00;94.10;;;;;;6066970;23;20028;-83
2022/05/18 13:02:12;;;;;;;3.40;1.20;;;24.20;93.70;;;;;;6066973;23;20010;-82
2022/05/18 13:04:46;;;;;;;3.22;1.13;;;24.20;93.60;;;;;;6072022;23;20469;-83
2022/05/18 13:07:31;;;;;;;4.38;1.35;;;24.30;93.60;;;;;;6067015;23;20014;-83
2022/05/18 13:10:11;;;;;;;2.15;1.30;;;24.30;93.50;;;;;;6067040;23;20060;-82
2022/05/18 13:12:47;;;;;;;4.93;1.08;;;24.40;93.30;;;;;;6066753;23;20055;-83
2022/05/18 13:15:19;;;;;;;2.25;1.23;;;26.00;89.90;;;;;;6066799;23;20081;-83
2022/05/18 13:17:55;;;;;;;2.17;1.10;;;26.10;89.60;;;;;;6093181;23;19998;-83
2022/05/18 13:20:27;;;;;;;3.15;1.20;;;25.80;90.10;;;;;;6068167;23;20006;-81
2022/05/18 13:23:18;;;;;;;4.32;1.10;;;25.50;90.40;;;;;;6093761;23;20312;-83
2022/05/18 13:25:49;;;;;;;5.55;1.15;;;25.20;90.80;;;;;;6067916;23;20081;-83
2022/05/18 13:28:16;;;;;;;2.50;1.10;;;25.10;91.00;;;;;;6068284;23;20006;-83